Weather at Incheon International Airport

Public forecast

Using degrees Celsius for public forecast. Weather courtesy of forecast.io.

Current aviation weather report (METAR) for Incheon International Airport

Report is more than 6 hours old.

2022/11/14 15:30 (retrieved 2 years ago)

RKSI 141530Z 11002KT CAVOK 06/02 Q1018 NOSIG

Aviation forecast (TAF) for Incheon International Airport

Forecast is more than 12 hours old.

2023/02/22 18:00 (retrieved 1 year ago)

TAF RKSI 221700Z 2218/2324 29006KT CAVOK TNM02/2221Z TX06/2306Z TNM01/2321Z BECMG 2219/2221 23006KT TEMPO 2303/2306 29008KT BECMG 2313/2315 29006KT 4000 BR NSC BECMG 2316/2317 33006KT 2500 TEMPO 2318/2320 0800 FG FEW005 BKN020